Ana Sayfa
METAR-TAF:

METAR-TAF

Havaalanları :

Proserpine, Avustralya

Enlem: 20-29-42S, Boylam: 148-33-06E, yükseklik: 25 m

Güncel hava durumu gözlemi

Rapor saat 05:00 UTC de 40 dakika önce yapıldı.
Rüzgar doğudan 13 kt
Sıcaklık 22°C
Nem 65%
Basınç 1019 hPa
Görüş mesafesi 10 km veya daha fazla
7700 ft yükseklikte çok bulutlu

METAR: YBPN 260500Z AUTO 10013KT 9999 // OVC077 22/15 Q1019

Saat: 15:40 (05:40 UTC)


TAF: eksik

4.000'den fazla havaalanı için hava durumu gözlemleri ve tahminleri (METAR ve TAF raporları).

Kullanılabilir istasyonlar harita üzerinde sarı ve kırmızı noktalarla gösterilir.

İstasyonun adını görmek için fareyi noktanın üzerinde gezdirin.

Sonrasında hava gözlem ve tahminlerini görmek için tıklayın.

Haritayı değiştirmek için: yaklaştırmak için siyah artı işaretli yeşil düğmeye ve uzaklaştırmak için de eksi işaretli düğmeye hızla tıklayın; bitişik haritalar için yeşil okları kullanın.


METAR-TAF: